DRK153 VTBS-VQPR
Flight info
| Callsign | DRK153 |
|---|---|
| Flight time | 2h 41m |
| Altitude | 38000 |
| Route | TARED1E TARED G463 DAC W3 SDP R598 BOGOP BOGOP1A |
| Aircraft | A319/M-SDE3FGHIRWY/LB1 |
Departure
| Time | 2026-05-06 09:44 |
|---|---|
| Airport | Suvarnabhumi Airport (VTBS) |
Arrival
| Time | 2026-05-06 12:25 |
|---|---|
| Airport | Paro International Airport (VQPR) |
| Time | Latitude | Longitude | Altitude | Speed | Heading |
|---|---|---|---|---|---|
| 2026-05-06 09:35 | 13.69341 | 100.74574 | 13 ft | 0 kts | 194° |
| 2026-05-06 09:36 | 13.69347 | 100.74576 | 13 ft | 4 kts | 193° |
| 2026-05-06 09:36 | 13.69374 | 100.74581 | 17 ft | 4 kts | 188° |
| 2026-05-06 09:36 | 13.69401 | 100.74584 | 15 ft | 4 kts | 183° |
| 2026-05-06 09:37 | 13.69428 | 100.74585 | 15 ft | 4 kts | 178° |
| 2026-05-06 09:37 | 13.69455 | 100.74583 | 13 ft | 4 kts | 175° |
| 2026-05-06 09:37 | 13.69482 | 100.74581 | 16 ft | 4 kts | 180° |
| 2026-05-06 09:37 | 13.69499 | 100.74582 | 15 ft | 0 kts | 195° |
| 2026-05-06 09:39 | 13.69496 | 100.74581 | 15 ft | 2 kts | 195° |
| 2026-05-06 09:39 | 13.69454 | 100.74560 | 14 ft | 12 kts | 226° |
| 2026-05-06 09:40 | 13.69459 | 100.74460 | 14 ft | 16 kts | 286° |
| 2026-05-06 09:40 | 13.69487 | 100.74352 | 13 ft | 16 kts | 286° |
| 2026-05-06 09:40 | 13.69613 | 100.74313 | 13 ft | 9 kts | 12° |
| 2026-05-06 09:41 | 13.69676 | 100.74328 | 13 ft | 9 kts | 14° |
| 2026-05-06 09:41 | 13.69740 | 100.74345 | 13 ft | 9 kts | 14° |
| 2026-05-06 09:41 | 13.69804 | 100.74362 | 13 ft | 9 kts | 14° |
| 2026-05-06 09:41 | 13.69883 | 100.74383 | 13 ft | 18 kts | 14° |
| 2026-05-06 09:42 | 13.70046 | 100.74423 | 14 ft | 28 kts | 13° |
| 2026-05-06 09:42 | 13.70204 | 100.74452 | 14 ft | 16 kts | 335° |
| 2026-05-06 09:42 | 13.70245 | 100.74354 | 15 ft | 15 kts | 283° |
| 2026-05-06 09:42 | 13.70225 | 100.74282 | 15 ft | 10 kts | 209° |
| 2026-05-06 09:43 | 13.70179 | 100.74269 | 15 ft | 10 kts | 194° |
| 2026-05-06 09:43 | 13.69891 | 100.74193 | 13 ft | 74 kts | 194° |
| 2026-05-06 09:43 | 13.69206 | 100.74013 | 13 ft | 126 kts | 194° |
| 2026-05-06 09:43 | 13.68219 | 100.73757 | 78 ft | 160 kts | 196° |
| 2026-05-06 09:44 | 13.67131 | 100.73497 | 569 ft | 164 kts | 196° |
| 2026-05-06 09:44 | 13.66004 | 100.73206 | 1003 ft | 171 kts | 193° |
| 2026-05-06 09:44 | 13.64836 | 100.72869 | 1531 ft | 176 kts | 195° |
| 2026-05-06 09:44 | 13.63641 | 100.72520 | 2060 ft | 183 kts | 194° |
| 2026-05-06 09:45 | 13.62336 | 100.72159 | 2320 ft | 205 kts | 193° |
| 2026-05-06 09:45 | 13.60871 | 100.71781 | 2604 ft | 229 kts | 193° |
| 2026-05-06 09:45 | 13.59242 | 100.71367 | 2920 ft | 253 kts | 192° |
| 2026-05-06 09:45 | 13.57479 | 100.70917 | 3455 ft | 266 kts | 192° |
| 2026-05-06 09:46 | 13.55681 | 100.70395 | 4180 ft | 273 kts | 201° |
| 2026-05-06 09:46 | 13.54153 | 100.69212 | 4883 ft | 282 kts | 232° |
| 2026-05-06 09:46 | 13.53340 | 100.67375 | 5634 ft | 288 kts | 261° |
| 2026-05-06 09:46 | 13.53466 | 100.65329 | 6375 ft | 291 kts | 284° |
| 2026-05-06 09:47 | 13.53960 | 100.63331 | 7112 ft | 293 kts | 284° |
| 2026-05-06 09:47 | 13.54532 | 100.61293 | 7896 ft | 294 kts | 292° |
| 2026-05-06 09:47 | 13.55586 | 100.59521 | 8597 ft | 297 kts | 312° |
| 2026-05-06 09:47 | 13.57175 | 100.58167 | 9318 ft | 299 kts | 331° |
| 2026-05-06 09:48 | 13.59118 | 100.57409 | 10008 ft | 301 kts | 350° |
| 2026-05-06 09:48 | 13.61264 | 100.57271 | 10253 ft | 321 kts | 2° |
| 2026-05-06 09:48 | 13.63576 | 100.57335 | 10378 ft | 343 kts | 2° |
| 2026-05-06 09:48 | 13.66037 | 100.57421 | 10490 ft | 364 kts | 2° |
| 2026-05-06 09:49 | 13.68611 | 100.57512 | 10782 ft | 376 kts | 2° |
| 2026-05-06 09:49 | 13.71243 | 100.57588 | 11255 ft | 381 kts | 0° |
| 2026-05-06 09:49 | 13.73878 | 100.57226 | 11784 ft | 385 kts | 343° |
| 2026-05-06 09:49 | 13.76294 | 100.56030 | 12336 ft | 389 kts | 325° |
| 2026-05-06 09:50 | 13.78228 | 100.54084 | 12888 ft | 392 kts | 307° |
| 2026-05-06 09:50 | 13.79764 | 100.51751 | 13445 ft | 395 kts | 304° |
| 2026-05-06 09:50 | 13.81281 | 100.49389 | 13946 ft | 397 kts | 303° |
| 2026-05-06 09:50 | 13.82809 | 100.47003 | 14420 ft | 400 kts | 304° |
| 2026-05-06 09:51 | 13.84344 | 100.44608 | 14887 ft | 403 kts | 304° |
| 2026-05-06 09:51 | 13.85894 | 100.42196 | 15348 ft | 405 kts | 304° |
| 2026-05-06 09:51 | 13.87456 | 100.39772 | 15799 ft | 408 kts | 304° |
| 2026-05-06 09:51 | 13.89031 | 100.37331 | 16268 ft | 410 kts | 304° |
| 2026-05-06 09:52 | 13.90614 | 100.34877 | 16724 ft | 413 kts | 304° |
| 2026-05-06 09:52 | 13.92212 | 100.32401 | 17168 ft | 416 kts | 304° |
| 2026-05-06 09:52 | 13.93816 | 100.29912 | 17610 ft | 419 kts | 304° |
| 2026-05-06 09:52 | 13.95426 | 100.27406 | 18042 ft | 421 kts | 305° |
| 2026-05-06 09:53 | 13.97044 | 100.24887 | 18412 ft | 423 kts | 305° |
| 2026-05-06 09:53 | 13.98675 | 100.22353 | 18772 ft | 425 kts | 305° |
| 2026-05-06 09:53 | 14.00316 | 100.19814 | 19108 ft | 427 kts | 305° |
| 2026-05-06 09:53 | 14.01975 | 100.17261 | 19452 ft | 429 kts | 305° |
| 2026-05-06 09:54 | 14.03644 | 100.14701 | 19797 ft | 431 kts | 305° |
| 2026-05-06 09:54 | 14.05320 | 100.12129 | 20130 ft | 433 kts | 304° |
| 2026-05-06 09:54 | 14.07001 | 100.09543 | 20435 ft | 436 kts | 304° |
| 2026-05-06 09:54 | 14.08690 | 100.06939 | 20755 ft | 438 kts | 304° |
| 2026-05-06 09:55 | 14.10383 | 100.04328 | 21067 ft | 440 kts | 304° |
| 2026-05-06 09:55 | 14.12088 | 100.01697 | 21368 ft | 442 kts | 305° |
| 2026-05-06 09:55 | 14.13796 | 99.99062 | 21690 ft | 443 kts | 304° |
| 2026-05-06 09:55 | 14.15489 | 99.96448 | 21966 ft | 446 kts | 304° |
| 2026-05-06 09:56 | 14.17234 | 99.93749 | 22273 ft | 447 kts | 304° |
| 2026-05-06 09:56 | 14.18939 | 99.91111 | 22558 ft | 449 kts | 304° |
| 2026-05-06 09:56 | 14.20674 | 99.88429 | 22860 ft | 451 kts | 304° |
| 2026-05-06 09:56 | 14.22416 | 99.85737 | 23138 ft | 452 kts | 304° |
| 2026-05-06 09:57 | 14.24168 | 99.83030 | 23375 ft | 455 kts | 304° |
| 2026-05-06 09:57 | 14.25924 | 99.80313 | 23586 ft | 457 kts | 305° |
| 2026-05-06 09:57 | 14.27689 | 99.77580 | 23802 ft | 458 kts | 304° |
| 2026-05-06 09:57 | 14.29461 | 99.74841 | 24008 ft | 460 kts | 304° |
| 2026-05-06 09:58 | 14.31242 | 99.72092 | 24211 ft | 462 kts | 304° |
| 2026-05-06 09:58 | 14.33026 | 99.69331 | 24422 ft | 463 kts | 304° |
| 2026-05-06 09:58 | 14.34809 | 99.66560 | 24629 ft | 464 kts | 304° |
| 2026-05-06 09:58 | 14.36594 | 99.63781 | 24822 ft | 466 kts | 304° |
| 2026-05-06 09:59 | 14.38388 | 99.60989 | 25023 ft | 467 kts | 304° |
| 2026-05-06 09:59 | 14.40184 | 99.58203 | 25262 ft | 467 kts | 304° |
| 2026-05-06 09:59 | 14.41986 | 99.55407 | 25465 ft | 468 kts | 304° |
| 2026-05-06 09:59 | 14.43773 | 99.52595 | 25660 ft | 470 kts | 301° |
| 2026-05-06 10:00 | 14.45327 | 99.49618 | 25827 ft | 472 kts | 298° |
| 2026-05-06 10:00 | 14.46839 | 99.46616 | 26017 ft | 473 kts | 298° |
| 2026-05-06 10:00 | 14.48355 | 99.43601 | 26203 ft | 474 kts | 298° |
| 2026-05-06 10:00 | 14.49880 | 99.40573 | 26377 ft | 476 kts | 298° |
| 2026-05-06 10:01 | 14.51410 | 99.37544 | 26582 ft | 477 kts | 298° |
| 2026-05-06 10:01 | 14.52946 | 99.34507 | 26755 ft | 478 kts | 298° |
| 2026-05-06 10:01 | 14.54483 | 99.31464 | 26960 ft | 479 kts | 298° |
| 2026-05-06 10:01 | 14.56023 | 99.28412 | 27134 ft | 480 kts | 298° |
| 2026-05-06 10:02 | 14.57563 | 99.25350 | 27312 ft | 481 kts | 298° |
| 2026-05-06 10:02 | 14.59101 | 99.22287 | 27592 ft | 480 kts | 298° |
| 2026-05-06 10:02 | 14.60640 | 99.19229 | 27856 ft | 480 kts | 298° |
| 2026-05-06 10:02 | 14.62178 | 99.16173 | 28136 ft | 479 kts | 298° |
| 2026-05-06 10:03 | 14.63712 | 99.13124 | 28415 ft | 478 kts | 298° |
| 2026-05-06 10:03 | 14.65246 | 99.10079 | 28679 ft | 477 kts | 298° |
| 2026-05-06 10:03 | 14.66772 | 99.07044 | 28969 ft | 477 kts | 298° |
| 2026-05-06 10:03 | 14.68297 | 99.04005 | 29229 ft | 477 kts | 298° |
| 2026-05-06 10:04 | 14.69826 | 99.00957 | 29489 ft | 476 kts | 298° |
| 2026-05-06 10:04 | 14.71350 | 98.97920 | 29769 ft | 476 kts | 298° |
| 2026-05-06 10:04 | 14.72875 | 98.94879 | 30021 ft | 476 kts | 298° |
| 2026-05-06 10:04 | 14.74392 | 98.91850 | 30281 ft | 475 kts | 298° |
| 2026-05-06 10:05 | 14.75908 | 98.88825 | 30542 ft | 474 kts | 298° |
| 2026-05-06 10:05 | 14.77423 | 98.85807 | 30841 ft | 472 kts | 298° |
| 2026-05-06 10:05 | 14.78929 | 98.82806 | 31182 ft | 469 kts | 298° |
| 2026-05-06 10:05 | 14.80425 | 98.79824 | 31482 ft | 467 kts | 297° |
| 2026-05-06 10:06 | 14.81917 | 98.76842 | 31756 ft | 466 kts | 297° |
| 2026-05-06 10:06 | 14.83402 | 98.73869 | 32027 ft | 466 kts | 297° |
| 2026-05-06 10:06 | 14.84870 | 98.70934 | 32271 ft | 466 kts | 298° |
| 2026-05-06 10:06 | 14.86357 | 98.67962 | 32509 ft | 466 kts | 298° |
| 2026-05-06 10:07 | 14.87846 | 98.64988 | 32770 ft | 465 kts | 298° |
| 2026-05-06 10:07 | 14.89331 | 98.62019 | 33041 ft | 465 kts | 298° |
| 2026-05-06 10:07 | 14.90814 | 98.59052 | 33326 ft | 464 kts | 298° |
| 2026-05-06 10:07 | 14.92296 | 98.56085 | 33620 ft | 464 kts | 298° |
| 2026-05-06 10:08 | 14.93793 | 98.53087 | 33906 ft | 463 kts | 298° |
| 2026-05-06 10:08 | 14.95266 | 98.50130 | 34163 ft | 462 kts | 298° |
| 2026-05-06 10:08 | 14.96738 | 98.47177 | 34402 ft | 461 kts | 298° |
| 2026-05-06 10:08 | 14.98204 | 98.44232 | 34648 ft | 461 kts | 298° |
| 2026-05-06 10:09 | 14.99668 | 98.41286 | 34883 ft | 460 kts | 298° |
| 2026-05-06 10:09 | 15.01129 | 98.38350 | 35118 ft | 459 kts | 298° |
| 2026-05-06 10:09 | 15.02590 | 98.35416 | 35348 ft | 458 kts | 298° |
| 2026-05-06 10:09 | 15.04029 | 98.32529 | 35594 ft | 456 kts | 298° |
| 2026-05-06 10:10 | 15.05478 | 98.29619 | 35871 ft | 454 kts | 298° |
| 2026-05-06 10:10 | 15.06941 | 98.26676 | 36116 ft | 453 kts | 298° |
| 2026-05-06 10:10 | 15.08387 | 98.23832 | 36325 ft | 452 kts | 301° |
| 2026-05-06 10:10 | 15.10179 | 98.21170 | 36524 ft | 451 kts | 310° |
| 2026-05-06 10:11 | 15.12365 | 98.18850 | 36706 ft | 450 kts | 320° |
| 2026-05-06 10:11 | 15.14821 | 98.16846 | 36887 ft | 450 kts | 322° |
| 2026-05-06 10:11 | 15.17295 | 98.14865 | 37073 ft | 449 kts | 322° |
| 2026-05-06 10:11 | 15.19761 | 98.12881 | 37268 ft | 449 kts | 322° |
| 2026-05-06 10:12 | 15.22226 | 98.10895 | 37463 ft | 449 kts | 322° |
| 2026-05-06 10:12 | 15.24688 | 98.08912 | 37651 ft | 448 kts | 322° |
| 2026-05-06 10:12 | 15.27150 | 98.06928 | 37795 ft | 449 kts | 322° |
| 2026-05-06 10:12 | 15.29618 | 98.04940 | 37824 ft | 450 kts | 322° |
| 2026-05-06 10:13 | 15.34560 | 98.00955 | 37814 ft | 450 kts | 322° |
| 2026-05-06 10:13 | 15.39515 | 97.96967 | 37814 ft | 450 kts | 322° |
| 2026-05-06 10:14 | 15.44449 | 97.92986 | 37814 ft | 449 kts | 322° |
| 2026-05-06 10:14 | 15.49377 | 97.88999 | 37806 ft | 449 kts | 322° |
| 2026-05-06 10:15 | 15.54304 | 97.85014 | 37803 ft | 450 kts | 322° |
| 2026-05-06 10:15 | 15.59240 | 97.81022 | 37807 ft | 450 kts | 322° |
| 2026-05-06 10:16 | 15.64181 | 97.77027 | 37806 ft | 450 kts | 322° |
| 2026-05-06 10:16 | 15.68292 | 97.73710 | 37805 ft | 450 kts | 322° |
| 2026-05-06 10:17 | 15.73228 | 97.69712 | 37805 ft | 450 kts | 322° |
| 2026-05-06 10:17 | 15.78163 | 97.65709 | 37808 ft | 451 kts | 321° |
| 2026-05-06 10:18 | 15.83912 | 97.61047 | 37810 ft | 451 kts | 322° |
| 2026-05-06 10:18 | 15.88052 | 97.57693 | 37823 ft | 451 kts | 321° |
| 2026-05-06 10:19 | 15.93811 | 97.53069 | 37819 ft | 449 kts | 323° |
| 2026-05-06 10:19 | 15.98082 | 97.49920 | 37819 ft | 449 kts | 325° |
| 2026-05-06 10:20 | 16.03243 | 97.46276 | 37822 ft | 448 kts | 325° |
| 2026-05-06 10:20 | 16.08387 | 97.42610 | 37814 ft | 448 kts | 324° |
| 2026-05-06 10:21 | 16.13457 | 97.38916 | 37814 ft | 448 kts | 324° |
| 2026-05-06 10:21 | 16.18551 | 97.35179 | 37813 ft | 448 kts | 324° |
| 2026-05-06 10:22 | 16.23688 | 97.31428 | 37810 ft | 448 kts | 324° |
| 2026-05-06 10:22 | 16.28757 | 97.27731 | 37813 ft | 448 kts | 324° |
| 2026-05-06 10:23 | 16.33873 | 97.24000 | 37810 ft | 448 kts | 324° |
| 2026-05-06 10:23 | 16.38981 | 97.20269 | 37810 ft | 448 kts | 324° |
| 2026-05-06 10:24 | 16.44089 | 97.16534 | 37813 ft | 449 kts | 324° |
| 2026-05-06 10:24 | 16.49201 | 97.12799 | 37811 ft | 449 kts | 324° |
| 2026-05-06 10:25 | 16.54311 | 97.09058 | 37814 ft | 449 kts | 324° |
| 2026-05-06 10:25 | 16.59419 | 97.05315 | 37816 ft | 449 kts | 324° |
| 2026-05-06 10:26 | 16.64533 | 97.01570 | 37812 ft | 449 kts | 324° |
| 2026-05-06 10:26 | 16.69616 | 96.97842 | 37811 ft | 450 kts | 324° |
| 2026-05-06 10:27 | 16.74737 | 96.94083 | 37809 ft | 450 kts | 324° |
| 2026-05-06 10:27 | 16.79859 | 96.90323 | 37810 ft | 450 kts | 324° |
| 2026-05-06 10:28 | 16.85018 | 96.86533 | 37811 ft | 450 kts | 324° |
| 2026-05-06 10:28 | 16.90139 | 96.82764 | 37810 ft | 450 kts | 324° |
| 2026-05-06 10:29 | 16.95262 | 96.78992 | 37813 ft | 451 kts | 323° |
| 2026-05-06 10:29 | 17.00385 | 96.75222 | 37808 ft | 451 kts | 323° |
| 2026-05-06 10:30 | 17.05480 | 96.71472 | 37805 ft | 451 kts | 323° |
| 2026-05-06 10:30 | 17.10603 | 96.67691 | 37800 ft | 451 kts | 323° |
| 2026-05-06 10:31 | 17.15724 | 96.63906 | 37800 ft | 451 kts | 323° |
| 2026-05-06 10:31 | 17.20846 | 96.60125 | 37799 ft | 451 kts | 323° |
| 2026-05-06 10:32 | 17.25974 | 96.56344 | 37793 ft | 451 kts | 323° |
| 2026-05-06 10:32 | 17.31090 | 96.52555 | 37789 ft | 451 kts | 322° |
| 2026-05-06 10:33 | 17.35813 | 96.48264 | 37787 ft | 449 kts | 316° |
| 2026-05-06 10:33 | 17.40464 | 96.43887 | 37785 ft | 450 kts | 316° |
| 2026-05-06 10:34 | 17.45119 | 96.39513 | 37780 ft | 450 kts | 316° |
| 2026-05-06 10:34 | 17.49775 | 96.35135 | 37779 ft | 450 kts | 316° |
| 2026-05-06 10:35 | 17.54427 | 96.30751 | 37773 ft | 450 kts | 316° |
| 2026-05-06 10:35 | 17.59079 | 96.26364 | 37773 ft | 450 kts | 316° |
| 2026-05-06 10:36 | 17.63734 | 96.21979 | 37772 ft | 450 kts | 316° |
| 2026-05-06 10:36 | 17.68385 | 96.17589 | 37775 ft | 450 kts | 316° |
| 2026-05-06 10:37 | 17.72995 | 96.13223 | 37774 ft | 449 kts | 316° |
| 2026-05-06 10:37 | 17.77638 | 96.08832 | 37775 ft | 449 kts | 316° |
| 2026-05-06 10:38 | 17.82284 | 96.04446 | 37774 ft | 449 kts | 316° |
| 2026-05-06 10:38 | 17.86921 | 96.00055 | 37772 ft | 449 kts | 316° |
| 2026-05-06 10:39 | 17.91553 | 95.95662 | 37772 ft | 449 kts | 316° |
| 2026-05-06 10:39 | 17.96186 | 95.91262 | 37774 ft | 449 kts | 316° |
| 2026-05-06 10:40 | 18.00814 | 95.86863 | 37779 ft | 449 kts | 316° |
| 2026-05-06 10:40 | 18.05445 | 95.82470 | 37772 ft | 448 kts | 316° |
| 2026-05-06 10:41 | 18.10070 | 95.78084 | 37771 ft | 448 kts | 316° |
| 2026-05-06 10:41 | 18.14694 | 95.73686 | 37764 ft | 447 kts | 316° |
| 2026-05-06 10:42 | 18.19281 | 95.69322 | 37766 ft | 447 kts | 316° |
| 2026-05-06 10:42 | 18.23895 | 95.64931 | 37767 ft | 447 kts | 316° |
| 2026-05-06 10:43 | 18.28495 | 95.60545 | 37765 ft | 446 kts | 316° |
| 2026-05-06 10:44 | 18.35393 | 95.53958 | 37758 ft | 446 kts | 316° |
| 2026-05-06 10:44 | 18.39992 | 95.49569 | 37752 ft | 446 kts | 315° |
| 2026-05-06 10:45 | 18.44592 | 95.45174 | 37751 ft | 447 kts | 315° |
| 2026-05-06 10:45 | 18.49237 | 95.40815 | 37746 ft | 447 kts | 317° |
| 2026-05-06 10:46 | 18.53956 | 95.36536 | 37749 ft | 448 kts | 317° |
| 2026-05-06 10:46 | 18.58680 | 95.32255 | 37764 ft | 448 kts | 317° |
| 2026-05-06 10:47 | 18.63389 | 95.27944 | 37764 ft | 448 kts | 317° |
| 2026-05-06 10:47 | 18.68092 | 95.23617 | 37763 ft | 449 kts | 316° |
| 2026-05-06 10:48 | 18.72800 | 95.19285 | 37766 ft | 449 kts | 317° |
| 2026-05-06 10:48 | 18.77510 | 95.14956 | 37781 ft | 449 kts | 317° |
| 2026-05-06 10:49 | 18.82223 | 95.10626 | 37777 ft | 449 kts | 317° |
| 2026-05-06 10:49 | 18.86937 | 95.06287 | 37775 ft | 449 kts | 317° |
| 2026-05-06 10:50 | 18.91644 | 95.01952 | 37787 ft | 449 kts | 317° |
| 2026-05-06 10:50 | 18.96354 | 94.97614 | 37789 ft | 449 kts | 317° |
| 2026-05-06 10:51 | 19.01035 | 94.93300 | 37797 ft | 449 kts | 316° |
| 2026-05-06 10:51 | 19.05746 | 94.88946 | 37794 ft | 449 kts | 316° |
| 2026-05-06 10:52 | 19.10449 | 94.84592 | 37815 ft | 449 kts | 316° |
| 2026-05-06 10:52 | 19.15155 | 94.80230 | 37814 ft | 450 kts | 316° |
| 2026-05-06 10:53 | 19.19866 | 94.75882 | 37802 ft | 449 kts | 316° |
| 2026-05-06 10:53 | 19.24577 | 94.71525 | 37821 ft | 449 kts | 316° |
| 2026-05-06 10:54 | 19.29257 | 94.67142 | 37824 ft | 449 kts | 316° |
| 2026-05-06 10:54 | 19.33875 | 94.62698 | 37813 ft | 448 kts | 315° |
| 2026-05-06 10:55 | 19.38471 | 94.58244 | 37813 ft | 448 kts | 315° |
| 2026-05-06 10:55 | 19.43078 | 94.53808 | 37832 ft | 447 kts | 315° |
| 2026-05-06 10:56 | 19.47662 | 94.49415 | 37827 ft | 447 kts | 315° |
| 2026-05-06 10:56 | 19.52271 | 94.44995 | 37821 ft | 446 kts | 315° |
| 2026-05-06 10:57 | 19.56869 | 94.40569 | 37825 ft | 446 kts | 315° |
| 2026-05-06 10:57 | 19.61468 | 94.36139 | 37831 ft | 446 kts | 315° |
| 2026-05-06 10:58 | 19.66072 | 94.31711 | 37833 ft | 447 kts | 315° |
| 2026-05-06 10:58 | 19.70669 | 94.27277 | 37831 ft | 447 kts | 315° |
| 2026-05-06 10:59 | 19.75268 | 94.22836 | 37847 ft | 447 kts | 315° |
| 2026-05-06 10:59 | 19.79865 | 94.18399 | 37845 ft | 446 kts | 315° |
| 2026-05-06 11:00 | 19.84455 | 94.13970 | 37842 ft | 445 kts | 315° |
| 2026-05-06 11:00 | 19.89028 | 94.09540 | 37835 ft | 445 kts | 315° |
| 2026-05-06 11:01 | 19.93596 | 94.05114 | 37828 ft | 444 kts | 315° |
| 2026-05-06 11:01 | 19.98172 | 94.00683 | 37830 ft | 444 kts | 315° |
| 2026-05-06 11:02 | 20.02737 | 93.96258 | 37823 ft | 444 kts | 315° |
| 2026-05-06 11:02 | 20.07302 | 93.91832 | 37827 ft | 444 kts | 315° |
| 2026-05-06 11:03 | 20.11862 | 93.87401 | 37840 ft | 443 kts | 314° |
| 2026-05-06 11:03 | 20.15642 | 93.83720 | 37838 ft | 443 kts | 314° |
| 2026-05-06 11:04 | 20.20188 | 93.79300 | 37838 ft | 442 kts | 315° |
| 2026-05-06 11:04 | 20.24731 | 93.74885 | 37834 ft | 442 kts | 315° |
| 2026-05-06 11:05 | 20.29271 | 93.70466 | 37831 ft | 442 kts | 314° |
| 2026-05-06 11:05 | 20.33805 | 93.66037 | 37837 ft | 442 kts | 314° |
| 2026-05-06 11:06 | 20.38334 | 93.61611 | 37828 ft | 442 kts | 314° |
| 2026-05-06 11:06 | 20.42829 | 93.57214 | 37831 ft | 441 kts | 314° |
| 2026-05-06 11:07 | 20.47353 | 93.52789 | 37845 ft | 441 kts | 314° |
| 2026-05-06 11:07 | 20.51882 | 93.48364 | 37829 ft | 441 kts | 314° |
| 2026-05-06 11:08 | 20.56413 | 93.43934 | 37830 ft | 442 kts | 314° |
| 2026-05-06 11:08 | 20.60939 | 93.39503 | 37836 ft | 442 kts | 314° |
| 2026-05-06 11:09 | 20.65460 | 93.35057 | 37816 ft | 442 kts | 314° |
| 2026-05-06 11:09 | 20.69991 | 93.30612 | 37820 ft | 442 kts | 314° |
| 2026-05-06 11:10 | 20.74525 | 93.26167 | 37831 ft | 442 kts | 314° |
| 2026-05-06 11:10 | 20.79049 | 93.21715 | 37844 ft | 442 kts | 314° |
| 2026-05-06 11:11 | 20.83569 | 93.17261 | 37828 ft | 442 kts | 314° |
| 2026-05-06 11:11 | 20.88064 | 93.12839 | 37828 ft | 441 kts | 314° |
| 2026-05-06 11:12 | 20.92579 | 93.08387 | 37827 ft | 442 kts | 314° |
| 2026-05-06 11:12 | 20.97122 | 93.03902 | 37830 ft | 441 kts | 314° |
| 2026-05-06 11:13 | 21.01600 | 92.99482 | 37824 ft | 440 kts | 314° |
| 2026-05-06 11:13 | 21.06096 | 92.95034 | 37823 ft | 439 kts | 314° |
| 2026-05-06 11:14 | 21.10583 | 92.90592 | 37824 ft | 439 kts | 314° |
| 2026-05-06 11:14 | 21.15074 | 92.86155 | 37835 ft | 439 kts | 314° |
| 2026-05-06 11:15 | 21.19558 | 92.81715 | 37825 ft | 439 kts | 314° |
| 2026-05-06 11:15 | 21.24034 | 92.77265 | 37822 ft | 439 kts | 313° |
| 2026-05-06 11:16 | 21.28513 | 92.72817 | 37835 ft | 439 kts | 314° |
| 2026-05-06 11:16 | 21.33003 | 92.68362 | 37832 ft | 439 kts | 313° |
| 2026-05-06 11:17 | 21.37476 | 92.63913 | 37833 ft | 439 kts | 313° |
| 2026-05-06 11:17 | 21.41952 | 92.59463 | 37837 ft | 438 kts | 313° |
| 2026-05-06 11:18 | 21.46420 | 92.55011 | 37855 ft | 438 kts | 313° |
| 2026-05-06 11:18 | 21.50888 | 92.50553 | 37853 ft | 439 kts | 313° |
| 2026-05-06 11:19 | 21.55362 | 92.46091 | 37830 ft | 438 kts | 313° |
| 2026-05-06 11:19 | 21.59828 | 92.41630 | 37836 ft | 438 kts | 313° |
| 2026-05-06 11:20 | 21.64286 | 92.37165 | 37828 ft | 438 kts | 313° |
| 2026-05-06 11:20 | 21.68771 | 92.32780 | 37830 ft | 440 kts | 315° |
| 2026-05-06 11:21 | 21.73547 | 92.28644 | 37828 ft | 441 kts | 317° |
| 2026-05-06 11:21 | 21.78407 | 92.24606 | 37825 ft | 441 kts | 317° |
| 2026-05-06 11:22 | 21.83214 | 92.20508 | 37842 ft | 440 kts | 316° |
| 2026-05-06 11:22 | 21.87975 | 92.16359 | 37827 ft | 440 kts | 316° |
| 2026-05-06 11:23 | 21.92739 | 92.12208 | 37823 ft | 440 kts | 316° |
| 2026-05-06 11:23 | 21.97484 | 92.08045 | 37826 ft | 440 kts | 315° |
| 2026-05-06 11:24 | 22.02195 | 92.03831 | 37827 ft | 440 kts | 315° |
| 2026-05-06 11:24 | 22.06896 | 91.99615 | 37823 ft | 440 kts | 315° |
| 2026-05-06 11:25 | 22.11613 | 91.95404 | 37820 ft | 440 kts | 315° |
| 2026-05-06 11:25 | 22.16330 | 91.91192 | 37821 ft | 440 kts | 315° |
| 2026-05-06 11:26 | 22.21045 | 91.86987 | 37804 ft | 440 kts | 315° |
| 2026-05-06 11:26 | 22.25759 | 91.82778 | 37804 ft | 440 kts | 315° |
| 2026-05-06 11:27 | 22.30436 | 91.78583 | 37802 ft | 440 kts | 315° |
| 2026-05-06 11:27 | 22.35133 | 91.74352 | 37804 ft | 440 kts | 315° |
| 2026-05-06 11:28 | 22.39830 | 91.70114 | 37807 ft | 440 kts | 315° |
| 2026-05-06 11:28 | 22.44526 | 91.65886 | 37809 ft | 440 kts | 315° |
| 2026-05-06 11:29 | 22.49227 | 91.61656 | 37818 ft | 439 kts | 315° |
| 2026-05-06 11:29 | 22.53922 | 91.57419 | 37814 ft | 439 kts | 315° |
| 2026-05-06 11:30 | 22.58616 | 91.53178 | 37809 ft | 439 kts | 315° |
| 2026-05-06 11:30 | 22.63302 | 91.48931 | 37811 ft | 439 kts | 315° |
| 2026-05-06 11:31 | 22.67988 | 91.44677 | 37809 ft | 440 kts | 315° |
| 2026-05-06 11:31 | 22.72680 | 91.40428 | 37804 ft | 440 kts | 315° |
| 2026-05-06 11:32 | 22.77373 | 91.36177 | 37797 ft | 440 kts | 315° |
| 2026-05-06 11:32 | 22.82029 | 91.31953 | 37814 ft | 439 kts | 314° |
| 2026-05-06 11:33 | 22.86711 | 91.27695 | 37805 ft | 439 kts | 314° |
| 2026-05-06 11:33 | 22.91381 | 91.23438 | 37801 ft | 439 kts | 314° |
| 2026-05-06 11:34 | 22.96054 | 91.19180 | 37795 ft | 438 kts | 314° |
| 2026-05-06 11:34 | 23.00727 | 91.14923 | 37794 ft | 439 kts | 314° |
| 2026-05-06 11:35 | 23.05399 | 91.10664 | 37794 ft | 439 kts | 314° |
| 2026-05-06 11:35 | 23.10070 | 91.06396 | 37791 ft | 439 kts | 314° |
| 2026-05-06 11:36 | 23.14740 | 91.02124 | 37800 ft | 439 kts | 314° |
| 2026-05-06 11:36 | 23.19421 | 90.97847 | 37793 ft | 439 kts | 314° |
| 2026-05-06 11:37 | 23.24137 | 90.93613 | 37790 ft | 440 kts | 315° |
| 2026-05-06 11:37 | 23.28882 | 90.89394 | 37790 ft | 440 kts | 315° |
| 2026-05-06 11:38 | 23.33616 | 90.85169 | 37791 ft | 440 kts | 315° |
| 2026-05-06 11:38 | 23.38352 | 90.80927 | 37792 ft | 441 kts | 315° |
| 2026-05-06 11:39 | 23.43057 | 90.76710 | 37822 ft | 441 kts | 314° |
| 2026-05-06 11:39 | 23.47780 | 90.72464 | 37818 ft | 439 kts | 315° |
| 2026-05-06 11:40 | 23.52494 | 90.68233 | 37809 ft | 438 kts | 315° |
| 2026-05-06 11:40 | 23.57197 | 90.64022 | 37804 ft | 437 kts | 315° |
| 2026-05-06 11:41 | 23.61891 | 90.59808 | 37801 ft | 437 kts | 315° |
| 2026-05-06 11:41 | 23.66582 | 90.55588 | 37801 ft | 437 kts | 314° |
| 2026-05-06 11:42 | 23.71271 | 90.51363 | 37801 ft | 437 kts | 314° |
| 2026-05-06 11:42 | 23.75958 | 90.47138 | 37827 ft | 437 kts | 314° |
| 2026-05-06 11:43 | 23.80642 | 90.42903 | 37814 ft | 437 kts | 313° |
| 2026-05-06 11:43 | 23.84546 | 90.37999 | 37809 ft | 425 kts | 299° |
| 2026-05-06 11:44 | 23.89640 | 90.30066 | 37805 ft | 425 kts | 300° |
| 2026-05-06 11:44 | 23.93019 | 90.24810 | 37806 ft | 425 kts | 300° |
| 2026-05-06 11:45 | 23.96411 | 90.19513 | 37800 ft | 425 kts | 300° |
| 2026-05-06 11:45 | 23.99801 | 90.14206 | 37801 ft | 425 kts | 300° |
| 2026-05-06 11:46 | 24.03192 | 90.08903 | 37801 ft | 425 kts | 300° |
| 2026-05-06 11:46 | 24.06579 | 90.03595 | 37798 ft | 425 kts | 300° |
| 2026-05-06 11:47 | 24.09963 | 89.98301 | 37806 ft | 423 kts | 299° |
| 2026-05-06 11:47 | 24.13330 | 89.93019 | 37802 ft | 423 kts | 299° |
| 2026-05-06 11:48 | 24.16698 | 89.87728 | 37800 ft | 423 kts | 299° |
| 2026-05-06 11:48 | 24.20063 | 89.82444 | 37799 ft | 423 kts | 299° |
| 2026-05-06 11:49 | 24.23421 | 89.77151 | 37801 ft | 423 kts | 299° |
| 2026-05-06 11:49 | 24.26772 | 89.71855 | 37797 ft | 423 kts | 299° |
| 2026-05-06 11:50 | 24.30125 | 89.66561 | 37799 ft | 423 kts | 299° |
| 2026-05-06 11:50 | 24.34031 | 89.61681 | 37790 ft | 436 kts | 315° |
| 2026-05-06 11:51 | 24.36597 | 89.59851 | 37797 ft | 446 kts | 326° |
| 2026-05-06 11:51 | 24.39441 | 89.58434 | 37829 ft | 450 kts | 329° |
| 2026-05-06 11:51 | 24.44208 | 89.56132 | 37817 ft | 450 kts | 328° |
| 2026-05-06 11:52 | 24.49930 | 89.53345 | 37801 ft | 450 kts | 328° |
| 2026-05-06 11:52 | 24.55651 | 89.50550 | 37798 ft | 450 kts | 328° |
| 2026-05-06 11:53 | 24.61363 | 89.47755 | 37795 ft | 450 kts | 328° |
| 2026-05-06 11:53 | 24.67083 | 89.44959 | 37801 ft | 450 kts | 328° |
| 2026-05-06 11:54 | 24.72804 | 89.42153 | 37816 ft | 450 kts | 328° |
| 2026-05-06 11:54 | 24.78521 | 89.39353 | 37807 ft | 450 kts | 328° |
| 2026-05-06 11:55 | 24.84209 | 89.36565 | 37801 ft | 450 kts | 328° |
| 2026-05-06 11:55 | 24.89925 | 89.33752 | 37802 ft | 450 kts | 328° |
| 2026-05-06 11:56 | 24.95647 | 89.30947 | 37801 ft | 450 kts | 328° |
| 2026-05-06 11:56 | 25.01373 | 89.28140 | 37799 ft | 450 kts | 328° |
| 2026-05-06 11:57 | 25.07092 | 89.25327 | 37807 ft | 450 kts | 328° |
| 2026-05-06 11:57 | 25.12815 | 89.22505 | 37801 ft | 451 kts | 328° |
| 2026-05-06 11:58 | 25.18543 | 89.19682 | 37794 ft | 451 kts | 328° |
| 2026-05-06 11:58 | 25.24280 | 89.16849 | 37787 ft | 452 kts | 328° |
| 2026-05-06 11:59 | 25.30016 | 89.14009 | 37799 ft | 452 kts | 328° |
| 2026-05-06 11:59 | 25.35766 | 89.11168 | 37804 ft | 453 kts | 328° |
| 2026-05-06 12:00 | 25.41513 | 89.08326 | 37796 ft | 452 kts | 328° |
| 2026-05-06 12:00 | 25.47217 | 89.05495 | 37798 ft | 453 kts | 328° |
| 2026-05-06 12:01 | 25.52964 | 89.02638 | 37808 ft | 453 kts | 328° |
| 2026-05-06 12:01 | 25.58709 | 88.99780 | 37803 ft | 453 kts | 328° |
| 2026-05-06 12:02 | 25.64455 | 88.96915 | 37832 ft | 453 kts | 328° |
| 2026-05-06 12:02 | 25.70294 | 88.94239 | 37813 ft | 463 kts | 338° |
| 2026-05-06 12:03 | 25.73525 | 88.93742 | 37818 ft | 477 kts | 352° |
| 2026-05-06 12:03 | 25.76873 | 88.94127 | 37810 ft | 491 kts | 7° |
| 2026-05-06 12:03 | 25.80117 | 88.95437 | 37798 ft | 504 kts | 22° |
| 2026-05-06 12:03 | 25.83036 | 88.97651 | 37790 ft | 513 kts | 38° |
| 2026-05-06 12:04 | 25.88316 | 89.03011 | 37181 ft | 516 kts | 39° |
| 2026-05-06 12:04 | 25.90958 | 89.05714 | 36423 ft | 517 kts | 39° |
| 2026-05-06 12:04 | 25.93608 | 89.08433 | 35681 ft | 519 kts | 39° |
| 2026-05-06 12:05 | 25.96268 | 89.11164 | 34930 ft | 523 kts | 40° |
| 2026-05-06 12:05 | 25.98955 | 89.13923 | 34059 ft | 529 kts | 40° |
| 2026-05-06 12:05 | 26.01671 | 89.16704 | 33164 ft | 533 kts | 40° |
| 2026-05-06 12:05 | 26.04401 | 89.19497 | 32315 ft | 534 kts | 40° |
| 2026-05-06 12:06 | 26.07139 | 89.22302 | 31504 ft | 535 kts | 40° |
| 2026-05-06 12:06 | 26.09873 | 89.25101 | 30718 ft | 534 kts | 40° |
| 2026-05-06 12:06 | 26.12597 | 89.27810 | 30004 ft | 531 kts | 39° |
| 2026-05-06 12:06 | 26.15393 | 89.30490 | 29100 ft | 530 kts | 38° |
| 2026-05-06 12:07 | 26.18210 | 89.33124 | 28134 ft | 529 kts | 37° |
| 2026-05-06 12:07 | 26.21036 | 89.35741 | 27155 ft | 528 kts | 37° |
| 2026-05-06 12:07 | 26.23852 | 89.38359 | 26153 ft | 527 kts | 38° |
| 2026-05-06 12:07 | 26.26656 | 89.40990 | 25158 ft | 527 kts | 38° |
| 2026-05-06 12:08 | 26.29441 | 89.43636 | 24106 ft | 526 kts | 39° |
| 2026-05-06 12:08 | 26.32215 | 89.46282 | 23234 ft | 521 kts | 37° |
| 2026-05-06 12:08 | 26.35133 | 89.48607 | 22425 ft | 510 kts | 30° |
| 2026-05-06 12:08 | 26.38127 | 89.50666 | 21605 ft | 502 kts | 29° |
| 2026-05-06 12:09 | 26.41090 | 89.52686 | 20854 ft | 495 kts | 29° |
| 2026-05-06 12:09 | 26.43954 | 89.54632 | 20643 ft | 467 kts | 29° |
| 2026-05-06 12:09 | 26.46641 | 89.56461 | 20516 ft | 439 kts | 29° |
| 2026-05-06 12:09 | 26.49175 | 89.58189 | 20394 ft | 415 kts | 29° |
| 2026-05-06 12:10 | 26.51579 | 89.59830 | 20131 ft | 397 kts | 29° |
| 2026-05-06 12:10 | 26.53907 | 89.61415 | 19591 ft | 388 kts | 29° |
| 2026-05-06 12:10 | 26.56201 | 89.62975 | 19006 ft | 383 kts | 29° |
| 2026-05-06 12:10 | 26.58461 | 89.64512 | 18476 ft | 376 kts | 29° |
| 2026-05-06 12:11 | 26.60635 | 89.65994 | 18363 ft | 357 kts | 29° |
| 2026-05-06 12:11 | 26.62698 | 89.67403 | 18270 ft | 338 kts | 29° |
| 2026-05-06 12:11 | 26.64654 | 89.68739 | 18147 ft | 321 kts | 28° |
| 2026-05-06 12:11 | 26.66511 | 89.69998 | 17822 ft | 312 kts | 28° |
| 2026-05-06 12:12 | 26.68350 | 89.71257 | 17436 ft | 308 kts | 29° |
| 2026-05-06 12:12 | 26.70148 | 89.72493 | 17307 ft | 300 kts | 28° |
| 2026-05-06 12:12 | 26.71997 | 89.73441 | 17174 ft | 285 kts | 8° |
| 2026-05-06 12:12 | 26.73923 | 89.73610 | 16951 ft | 274 kts | 349° |
| 2026-05-06 12:13 | 26.75755 | 89.73185 | 16704 ft | 266 kts | 334° |
| 2026-05-06 12:13 | 26.77408 | 89.72316 | 16319 ft | 263 kts | 326° |
| 2026-05-06 12:13 | 26.79036 | 89.71329 | 15864 ft | 267 kts | 327° |
| 2026-05-06 12:13 | 26.80675 | 89.70349 | 15523 ft | 267 kts | 328° |
| 2026-05-06 12:14 | 26.82313 | 89.69377 | 15205 ft | 266 kts | 328° |
| 2026-05-06 12:14 | 26.83941 | 89.68411 | 14905 ft | 264 kts | 328° |
| 2026-05-06 12:14 | 26.85561 | 89.67450 | 14598 ft | 262 kts | 328° |
| 2026-05-06 12:14 | 26.87038 | 89.66301 | 14335 ft | 256 kts | 314° |
| 2026-05-06 12:15 | 26.88262 | 89.64873 | 14020 ft | 253 kts | 309° |
| 2026-05-06 12:15 | 26.89451 | 89.63430 | 13727 ft | 251 kts | 309° |
| 2026-05-06 12:15 | 26.90632 | 89.61999 | 13405 ft | 249 kts | 309° |
| 2026-05-06 12:15 | 26.91804 | 89.60576 | 13088 ft | 248 kts | 309° |
| 2026-05-06 12:16 | 26.92966 | 89.59164 | 12819 ft | 245 kts | 310° |
| 2026-05-06 12:16 | 26.94130 | 89.57750 | 12783 ft | 249 kts | 309° |
| 2026-05-06 12:16 | 26.95311 | 89.56321 | 12783 ft | 250 kts | 310° |
| 2026-05-06 12:16 | 26.96663 | 89.55098 | 12781 ft | 250 kts | 326° |
| 2026-05-06 12:17 | 26.98251 | 89.54365 | 12781 ft | 251 kts | 343° |
| 2026-05-06 12:17 | 26.99950 | 89.54102 | 12824 ft | 242 kts | 351° |
| 2026-05-06 12:17 | 27.01617 | 89.53912 | 12828 ft | 239 kts | 351° |
| 2026-05-06 12:17 | 27.03269 | 89.53717 | 12825 ft | 238 kts | 350° |
| 2026-05-06 12:18 | 27.04904 | 89.53525 | 12830 ft | 235 kts | 351° |
| 2026-05-06 12:18 | 27.06530 | 89.53334 | 12882 ft | 234 kts | 349° |
| 2026-05-06 12:18 | 27.08154 | 89.53142 | 12839 ft | 234 kts | 349° |
| 2026-05-06 12:18 | 27.09777 | 89.52951 | 12849 ft | 235 kts | 350° |
| 2026-05-06 12:19 | 27.11408 | 89.52742 | 12890 ft | 238 kts | 351° |
| 2026-05-06 12:19 | 27.13054 | 89.52523 | 12893 ft | 238 kts | 350° |
| 2026-05-06 12:19 | 27.14696 | 89.52291 | 12902 ft | 238 kts | 350° |
| 2026-05-06 12:19 | 27.16323 | 89.52052 | 12676 ft | 235 kts | 350° |
| 2026-05-06 12:20 | 27.17906 | 89.51826 | 12544 ft | 221 kts | 350° |
| 2026-05-06 12:20 | 27.19368 | 89.51591 | 12425 ft | 205 kts | 351° |
| 2026-05-06 12:20 | 27.20761 | 89.51702 | 12100 ft | 200 kts | 12° |
| 2026-05-06 12:20 | 27.22093 | 89.52053 | 11937 ft | 192 kts | 13° |
| 2026-05-06 12:21 | 27.23368 | 89.52400 | 11827 ft | 184 kts | 13° |
| 2026-05-06 12:21 | 27.24603 | 89.52734 | 11634 ft | 181 kts | 13° |
| 2026-05-06 12:21 | 27.25824 | 89.53058 | 11419 ft | 179 kts | 13° |
| 2026-05-06 12:21 | 27.27037 | 89.53375 | 11181 ft | 179 kts | 13° |
| 2026-05-06 12:22 | 27.28252 | 89.53665 | 11009 ft | 178 kts | 11° |
| 2026-05-06 12:22 | 27.29481 | 89.53840 | 10865 ft | 177 kts | 0° |
| 2026-05-06 12:22 | 27.30685 | 89.53612 | 10653 ft | 176 kts | 338° |
| 2026-05-06 12:22 | 27.31681 | 89.52835 | 10445 ft | 175 kts | 317° |
| 2026-05-06 12:23 | 27.32280 | 89.51664 | 10238 ft | 176 kts | 286° |
| 2026-05-06 12:23 | 27.32426 | 89.50270 | 9878 ft | 185 kts | 274° |
| 2026-05-06 12:23 | 27.32610 | 89.48798 | 9355 ft | 192 kts | 291° |
| 2026-05-06 12:23 | 27.33405 | 89.47651 | 9014 ft | 186 kts | 321° |
| 2026-05-06 12:24 | 27.34519 | 89.46955 | 8721 ft | 179 kts | 338° |
| 2026-05-06 12:24 | 27.35649 | 89.46504 | 8677 ft | 174 kts | 343° |
| 2026-05-06 12:24 | 27.36810 | 89.46112 | 8310 ft | 173 kts | 343° |
| 2026-05-06 12:24 | 27.37827 | 89.45485 | 7989 ft | 169 kts | 307° |
| 2026-05-06 12:25 | 27.38207 | 89.44249 | 7780 ft | 167 kts | 293° |
| 2026-05-06 12:25 | 27.38992 | 89.43327 | 7488 ft | 165 kts | 332° |
| 2026-05-06 12:25 | 27.39954 | 89.42702 | 7338 ft | 147 kts | 330° |
| 2026-05-06 12:25 | 27.40471 | 89.42376 | 7337 ft | 34 kts | 332° |
| 2026-05-06 12:26 | 27.40593 | 89.42301 | 7337 ft | 14 kts | 332° |
| 2026-05-06 12:26 | 27.40667 | 89.42253 | 7338 ft | 11 kts | 329° |
| 2026-05-06 12:26 | 27.40668 | 89.42180 | 7336 ft | 12 kts | 243° |
| 2026-05-06 12:26 | 27.40638 | 89.42125 | 7333 ft | 4 kts | 240° |
| 2026-05-06 12:27 | 27.40626 | 89.42102 | 7333 ft | 0 kts | 241° |